createdAt,value
2023-04-10T00:02:06.243Z,9.50
2023-04-10T00:04:43.162Z,9.80
2023-04-10T00:07:17.038Z,9.50
2023-04-10T00:09:45.808Z,10.10
2023-04-10T00:12:18.474Z,9.80
2023-04-10T00:15:04.635Z,10.50
2023-04-10T00:17:39.130Z,9.70
2023-04-10T00:20:14.021Z,10.40
2023-04-10T00:22:44.116Z,9.00
2023-04-10T00:25:17.181Z,9.70
2023-04-10T00:27:45.723Z,10.70
2023-04-10T00:30:13.903Z,10.30
2023-04-10T00:33:06.521Z,10.20
2023-04-10T00:35:40.958Z,10.10
2023-04-10T00:38:09.225Z,10.50
2023-04-10T00:40:46.104Z,9.90
2023-04-10T00:43:15.754Z,10.10
2023-04-10T00:45:47.088Z,12.10
2023-04-10T00:48:20.636Z,11.00
2023-04-10T00:50:48.798Z,11.50
2023-04-10T00:53:17.425Z,12.00
2023-04-10T00:55:46.411Z,12.00
2023-04-10T00:58:16.795Z,11.10
2023-04-10T01:00:53.450Z,11.10
2023-04-10T01:03:23.051Z,12.30
2023-04-10T01:06:06.735Z,11.90
2023-04-10T01:08:36.637Z,12.30
2023-04-10T01:11:18.473Z,13.80
2023-04-10T01:14:02.313Z,13.20
2023-04-10T01:16:37.054Z,12.20
2023-04-10T01:19:34.555Z,12.20
2023-04-10T01:22:03.203Z,12.30
2023-04-10T01:25:19.616Z,11.60
2023-04-10T01:27:51.699Z,13.50
2023-04-10T01:30:20.865Z,13.50
2023-04-10T01:32:54.070Z,12.90
2023-04-10T01:35:24.772Z,12.20
2023-04-10T01:37:55.754Z,13.00
2023-04-10T01:40:26.903Z,12.80
2023-04-10T01:42:57.181Z,13.10
2023-04-10T01:45:33.785Z,14.70
2023-04-10T01:48:04.419Z,13.80
2023-04-10T01:50:33.508Z,13.60
2023-04-10T01:53:02.055Z,12.90
2023-04-10T01:55:30.696Z,14.20
2023-04-10T01:58:05.027Z,14.50
2023-04-10T02:00:43.461Z,14.90
2023-04-10T02:03:12.298Z,14.90
2023-04-10T02:06:03.560Z,15.80
2023-04-10T02:08:41.355Z,17.00
2023-04-10T02:11:13.463Z,15.50
2023-04-10T02:13:42.750Z,16.10
2023-04-10T02:19:04.704Z,16.50
2023-04-10T02:21:35.256Z,17.30
2023-04-10T02:24:39.379Z,15.80
2023-04-10T02:27:00.375Z,16.30
2023-04-10T02:29:39.110Z,16.20
2023-04-10T02:32:08.489Z,17.40
2023-04-10T02:34:36.948Z,18.00
2023-04-10T02:37:09.031Z,17.60
2023-04-10T02:39:38.040Z,18.30
2023-04-10T02:42:08.420Z,17.30
2023-04-10T02:44:41.772Z,16.30
2023-04-10T02:47:13.328Z,16.30
2023-04-10T02:49:46.712Z,15.50
2023-04-10T02:52:17.403Z,17.00
2023-04-10T02:54:47.715Z,16.30
2023-04-10T02:57:16.408Z,16.80
2023-04-10T02:59:45.851Z,17.40
2023-04-10T03:02:17.980Z,16.00
2023-04-10T03:04:51.372Z,16.50
2023-04-10T03:07:27.560Z,15.80
2023-04-10T03:09:56.130Z,15.60
2023-04-10T03:12:26.876Z,16.80
2023-04-10T03:14:55.841Z,16.30
2023-04-10T03:17:27.182Z,17.30
2023-04-10T03:19:55.480Z,17.10
2023-04-10T03:22:23.868Z,15.80
2023-04-10T03:24:54.149Z,15.20
2023-04-10T03:27:27.913Z,16.10
2023-04-10T03:29:58.847Z,17.20
2023-04-10T03:32:29.497Z,17.90
2023-04-10T03:34:58.535Z,17.20
2023-04-10T03:37:27.861Z,18.10
2023-04-10T03:39:56.829Z,16.20
2023-04-10T03:42:25.684Z,17.10
2023-04-10T03:44:54.642Z,16.50
2023-04-10T03:47:22.924Z,16.70
2023-04-10T03:50:03.296Z,18.60
2023-04-10T03:52:38.610Z,18.40
2023-04-10T03:55:10.544Z,19.20
2023-04-10T03:57:41.803Z,19.70
2023-04-10T04:00:12.551Z,18.00
2023-04-10T04:05:46.158Z,17.60
2023-04-10T04:08:29.717Z,18.60
2023-04-10T04:11:16.816Z,20.10
2023-04-10T04:14:08.044Z,19.90
2023-04-10T04:17:06.033Z,20.20
2023-04-10T04:19:57.373Z,19.30
2023-04-10T04:22:47.618Z,18.00
2023-04-10T04:25:34.562Z,16.00
2023-04-10T04:28:21.378Z,16.70
2023-04-10T04:31:13.720Z,17.30
2023-04-10T04:34:20.483Z,18.30
2023-04-10T04:37:07.731Z,16.70
2023-04-10T04:39:56.590Z,16.70
2023-04-10T04:42:25.897Z,16.00
2023-04-10T04:45:12.958Z,16.40
2023-04-10T04:48:01.192Z,16.20
2023-04-10T04:50:41.734Z,15.80
2023-04-10T04:53:23.203Z,16.20
2023-04-10T04:55:52.712Z,15.60
2023-04-10T04:58:39.968Z,15.70
2023-04-10T05:01:20.635Z,14.90
2023-04-10T05:04:15.791Z,14.20
2023-04-10T05:06:58.008Z,14.90
2023-04-10T05:09:40.049Z,15.00
2023-04-10T05:12:26.868Z,15.10
2023-04-10T05:15:00.459Z,14.60
2023-04-10T05:17:39.497Z,14.20
2023-04-10T05:20:37.121Z,13.80
2023-04-10T05:23:19.474Z,15.70
2023-04-10T05:26:06.809Z,14.70
2023-04-10T05:29:04.549Z,14.70
2023-04-10T05:31:59.688Z,15.20
2023-04-10T05:35:00.052Z,15.50
2023-04-10T05:37:50.832Z,14.80
2023-04-10T05:40:45.282Z,14.70
2023-04-10T05:43:32.447Z,16.40
2023-04-10T05:51:43.594Z,16.50
2023-04-10T05:54:42.797Z,16.40
2023-04-10T05:57:25.035Z,16.00
2023-04-10T06:00:10.932Z,16.20
2023-04-10T06:02:41.836Z,16.30
2023-04-10T06:05:13.465Z,17.50
2023-04-10T06:07:42.453Z,16.30
2023-04-10T06:10:10.016Z,17.00
2023-04-10T06:12:37.134Z,15.60
2023-04-10T06:15:05.883Z,16.20
2023-04-10T06:17:41.207Z,16.20
2023-04-10T06:20:08.846Z,17.10
2023-04-10T06:22:41.598Z,18.00
2023-04-10T06:25:10.840Z,17.50
2023-04-10T06:27:37.626Z,17.70
2023-04-10T06:30:10.623Z,17.90
2023-04-10T06:32:40.199Z,16.40
2023-04-10T06:35:08.155Z,16.80
2023-04-10T06:37:35.773Z,18.00
2023-04-10T06:40:13.271Z,16.10
2023-04-10T06:45:13.995Z,19.30
2023-04-10T06:47:40.878Z,17.60
2023-04-10T06:50:14.930Z,17.60
2023-04-10T06:52:44.229Z,18.30
2023-04-10T06:55:12.454Z,18.30
2023-04-10T06:57:59.223Z,19.20
2023-04-10T07:00:26.286Z,19.90
2023-04-10T07:02:53.639Z,19.00
2023-04-10T07:05:20.398Z,18.30
2023-04-10T07:07:47.104Z,19.30
2023-04-10T07:10:13.960Z,17.70
2023-04-10T07:12:40.829Z,19.90
2023-04-10T07:15:13.048Z,18.10
2023-04-10T07:17:40.876Z,18.40
2023-04-10T07:20:08.875Z,17.80
2023-04-10T07:22:42.618Z,17.40
2023-04-10T07:25:13.744Z,18.60
2023-04-10T07:27:41.200Z,16.90
2023-04-10T07:30:12.284Z,16.60
2023-04-10T07:32:42.771Z,15.80
2023-04-10T07:35:09.927Z,16.50
2023-04-10T07:37:43.359Z,15.10
2023-04-10T07:40:10.652Z,14.00
2023-04-10T07:42:37.414Z,14.10
2023-04-10T07:45:05.283Z,13.40
2023-04-10T07:47:32.451Z,13.00
2023-04-10T07:49:59.829Z,13.40
2023-04-10T07:52:26.764Z,14.40
2023-04-10T07:54:53.612Z,14.00
2023-04-10T07:57:24.112Z,11.80
2023-04-10T07:59:51.083Z,12.60
2023-04-10T08:02:17.998Z,13.20
2023-04-10T08:04:45.724Z,14.50
2023-04-10T08:07:13.009Z,14.20
2023-04-10T08:09:40.265Z,13.40
2023-04-10T08:12:07.684Z,13.70
2023-04-10T08:18:06.614Z,12.20
2023-04-10T08:20:57.482Z,12.60
2023-04-10T08:26:29.986Z,12.80
2023-04-10T08:29:18.656Z,12.60
2023-04-10T08:32:00.404Z,12.30
2023-04-10T08:34:27.609Z,10.90
2023-04-10T08:36:54.861Z,9.50
2023-04-10T08:39:22.212Z,9.90
2023-04-10T08:41:48.996Z,9.10
2023-04-10T08:44:16.382Z,9.30
2023-04-10T08:46:44.837Z,10.60
2023-04-10T08:49:23.958Z,9.70
2023-04-10T08:51:58.245Z,8.90
2023-04-10T08:54:28.695Z,8.40
2023-04-10T08:56:56.202Z,6.60
2023-04-10T08:59:22.917Z,7.70
2023-04-10T09:01:50.035Z,7.00
2023-04-10T09:04:17.417Z,8.00
2023-04-10T09:06:44.628Z,6.50
2023-04-10T09:09:19.868Z,7.30
2023-04-10T09:11:56.287Z,7.30
2023-04-10T09:14:24.712Z,7.10
2023-04-10T09:16:52.273Z,7.40
2023-04-10T09:19:33.150Z,7.60
2023-04-10T09:22:00.208Z,6.60
2023-04-10T09:24:27.212Z,6.50
2023-04-10T09:26:55.320Z,6.70
2023-04-10T09:29:22.674Z,6.30
2023-04-10T09:31:50.764Z,7.50
2023-04-10T09:34:21.938Z,7.00
2023-04-10T09:36:58.602Z,6.40
2023-04-10T09:39:45.338Z,6.20
2023-04-10T09:42:12.413Z,4.70
2023-04-10T09:44:39.980Z,4.30
2023-04-10T09:47:13.064Z,4.80
2023-04-10T09:49:44.661Z,5.10
2023-04-10T09:52:18.333Z,4.70
2023-04-10T09:54:45.775Z,4.30
2023-04-10T09:57:17.812Z,6.70
2023-04-10T09:59:50.940Z,7.00
2023-04-10T10:02:18.920Z,7.90
2023-04-10T10:04:46.872Z,7.70
2023-04-10T10:07:19.312Z,8.70
2023-04-10T10:09:48.754Z,7.60
2023-04-10T10:12:18.747Z,8.10
2023-04-10T10:15:13.529Z,8.20
2023-04-10T10:17:44.923Z,6.80
2023-04-10T10:20:11.729Z,5.80
2023-04-10T10:22:48.456Z,6.80
2023-04-10T10:25:15.838Z,6.70
2023-04-10T10:27:42.794Z,6.00
2023-04-10T10:30:28.195Z,5.40
2023-04-10T10:32:58.074Z,5.20
2023-04-10T10:35:30.300Z,5.40
2023-04-10T10:38:00.135Z,4.60
2023-04-10T10:40:29.603Z,4.80
2023-04-10T10:43:08.961Z,4.70
2023-04-10T10:46:01.274Z,4.20
2023-04-10T10:48:28.160Z,3.80
2023-04-10T10:50:58.365Z,3.80
2023-04-10T10:53:36.489Z,3.90
2023-04-10T10:56:32.979Z,3.80
2023-04-10T10:59:01.363Z,4.00
2023-04-10T11:01:28.478Z,3.70
2023-04-10T11:03:56.906Z,3.70
2023-04-10T11:06:49.585Z,3.40
2023-04-10T11:09:47.866Z,3.90
2023-04-10T11:12:24.431Z,3.20
2023-04-10T11:14:59.681Z,2.50
2023-04-10T11:17:51.972Z,2.80
2023-04-10T11:20:21.394Z,2.60
2023-04-10T11:23:11.254Z,2.80
2023-04-10T11:25:52.371Z,3.00
2023-04-10T11:28:31.392Z,3.00
2023-04-10T11:31:21.828Z,3.30
2023-04-10T11:34:10.824Z,3.70
2023-04-10T11:36:38.717Z,2.10
2023-04-10T11:39:09.785Z,1.80
2023-04-10T11:41:38.560Z,2.60
2023-04-10T11:44:06.827Z,2.60
2023-04-10T11:46:40.922Z,2.90
2023-04-10T11:49:09.315Z,3.00
2023-04-10T11:51:36.775Z,3.00
2023-04-10T11:54:13.518Z,3.20
2023-04-10T11:56:42.747Z,3.30
2023-04-10T11:59:10.422Z,3.30
2023-04-10T12:01:39.356Z,3.30
2023-04-10T12:04:17.423Z,4.00
2023-04-10T12:06:46.338Z,4.30
2023-04-10T12:09:18.031Z,4.90
2023-04-10T12:11:52.975Z,4.50
2023-04-10T12:14:23.213Z,5.70
2023-04-10T12:16:50.761Z,4.80
2023-04-10T12:19:22.002Z,5.00
2023-04-10T12:21:48.657Z,4.30
2023-04-10T12:24:40.863Z,4.00
2023-04-10T12:27:28.717Z,4.40
2023-04-10T12:29:57.017Z,4.30
2023-04-10T12:32:24.940Z,4.30
2023-04-10T12:34:58.227Z,4.60
2023-04-10T12:37:45.830Z,4.50
2023-04-10T12:40:13.553Z,4.80
2023-04-10T12:42:43.645Z,4.50
2023-04-10T12:45:13.171Z,4.10
2023-04-10T12:47:47.804Z,4.70
2023-04-10T12:50:20.137Z,4.80
2023-04-10T12:53:08.548Z,4.20
2023-04-10T12:55:35.290Z,4.40
2023-04-10T12:58:31.288Z,3.50
2023-04-10T13:01:03.829Z,3.20
2023-04-10T13:03:37.973Z,3.10
2023-04-10T13:06:06.949Z,3.00
2023-04-10T13:08:34.973Z,2.60
2023-04-10T13:11:03.423Z,2.70
2023-04-10T13:13:33.049Z,2.30
2023-04-10T13:16:00.349Z,2.30
2023-04-10T13:18:27.461Z,2.70
2023-04-10T13:20:54.302Z,2.60
2023-04-10T13:23:23.975Z,2.30
2023-04-10T13:25:51.708Z,2.70
2023-04-10T13:28:20.984Z,2.50
2023-04-10T13:30:48.121Z,2.90
2023-04-10T13:33:15.577Z,2.30
2023-04-10T13:35:42.561Z,2.60
2023-04-10T13:38:11.051Z,1.80
2023-04-10T13:40:43.244Z,2.20
2023-04-10T13:43:10.661Z,2.30
2023-04-10T13:45:37.581Z,2.10
2023-04-10T13:48:06.834Z,2.30
2023-04-10T13:50:34.180Z,2.40
2023-04-10T13:53:08.561Z,2.90
2023-04-10T13:55:37.333Z,2.40
2023-04-10T13:58:04.440Z,2.10
2023-04-10T14:00:31.527Z,2.30
2023-04-10T14:02:59.381Z,2.40
2023-04-10T14:05:27.073Z,2.10
2023-04-10T14:07:56.482Z,2.50
2023-04-10T14:10:23.674Z,2.30
2023-04-10T14:12:50.508Z,2.50
2023-04-10T14:15:18.852Z,2.70
2023-04-10T14:17:46.890Z,2.00
2023-04-10T14:20:13.689Z,2.20
2023-04-10T14:22:40.980Z,1.90
2023-04-10T14:25:13.636Z,1.80
2023-04-10T14:27:41.984Z,1.80
2023-04-10T14:30:10.199Z,2.10
2023-04-10T14:32:40.378Z,2.10
2023-04-10T14:35:08.137Z,2.00
2023-04-10T14:37:35.503Z,1.80
2023-04-10T14:40:04.374Z,2.00
2023-04-10T14:42:32.121Z,2.20
2023-04-10T14:44:58.984Z,1.80
2023-04-10T14:47:26.719Z,1.70
2023-04-10T14:49:53.901Z,1.80
2023-04-10T14:52:20.747Z,1.70
2023-04-10T14:54:47.488Z,1.90
2023-04-10T14:57:18.934Z,2.50
2023-04-10T14:59:45.641Z,2.40
2023-04-10T15:02:12.672Z,2.20
2023-04-10T15:04:40.650Z,2.80
2023-04-10T15:07:07.772Z,2.50
2023-04-10T15:09:34.701Z,2.80
2023-04-10T15:12:01.991Z,2.50
2023-04-10T15:14:28.918Z,3.00
2023-04-10T15:16:55.758Z,3.10
2023-04-10T15:19:33.226Z,2.50
2023-04-10T15:21:59.957Z,3.20
2023-04-10T15:24:27.194Z,3.00
2023-04-10T15:26:57.234Z,2.90
2023-04-10T15:29:24.386Z,3.40
2023-04-10T15:31:51.898Z,3.70
2023-04-10T15:34:19.057Z,3.80
2023-04-10T15:36:46.463Z,3.10
2023-04-10T15:39:14.289Z,4.10
2023-04-10T15:41:41.461Z,4.00
2023-04-10T15:44:08.418Z,3.90
2023-04-10T15:46:36.966Z,3.80
2023-04-10T15:49:04.864Z,4.80
2023-04-10T15:51:31.810Z,4.40
2023-04-10T15:53:58.805Z,4.80
2023-04-10T15:56:25.630Z,3.90
2023-04-10T15:58:55.296Z,3.90
2023-04-10T16:01:22.190Z,4.30
2023-04-10T16:03:52.390Z,4.40
2023-04-10T16:06:20.141Z,4.90
2023-04-10T16:08:47.161Z,4.70
2023-04-10T16:11:14.243Z,4.10
2023-04-10T16:15:13.449Z,3.90
2023-04-10T16:29:25.679Z,5.80
2023-04-10T16:31:54.118Z,5.10
2023-04-10T16:34:22.433Z,6.10
2023-04-10T16:36:50.819Z,6.60
2023-04-10T16:39:19.764Z,6.50
2023-04-10T16:41:48.087Z,6.10
2023-04-10T16:44:16.608Z,7.60
2023-04-10T16:53:24.950Z,6.60
2023-04-10T16:56:04.521Z,6.60
2023-04-10T16:58:42.023Z,6.10
2023-04-10T17:01:21.589Z,6.50
2023-04-10T17:03:53.383Z,7.30
2023-04-10T17:06:22.870Z,7.10
2023-04-10T17:08:51.708Z,7.60
2023-04-10T17:11:25.465Z,7.70
2023-04-10T17:14:01.472Z,7.20
2023-04-10T17:16:35.148Z,7.90
2023-04-10T17:19:03.508Z,8.10
2023-04-10T17:21:34.444Z,7.40
2023-04-10T17:24:13.052Z,7.50
2023-04-10T17:26:41.390Z,7.80
2023-04-10T17:29:26.018Z,8.30
2023-04-10T17:32:00.292Z,8.50
2023-04-10T17:34:31.142Z,9.00
2023-04-10T17:37:08.562Z,8.70
2023-04-10T17:39:46.379Z,11.20
2023-04-10T17:42:17.989Z,11.50
2023-04-10T17:44:48.936Z,12.80
2023-04-10T17:47:26.888Z,12.40
2023-04-10T17:49:56.924Z,12.90
2023-04-10T17:52:28.953Z,12.30
2023-04-10T17:55:03.182Z,13.00
2023-04-10T17:57:36.551Z,13.70
2023-04-10T18:00:14.511Z,12.50
2023-04-10T18:02:43.511Z,12.70
2023-04-10T18:05:23.901Z,12.70
2023-04-10T18:08:20.420Z,13.40
2023-04-10T18:11:00.624Z,13.20
2023-04-10T18:13:39.008Z,15.00
2023-04-10T18:16:29.280Z,14.20
2023-04-10T18:19:01.432Z,14.20
2023-04-10T18:21:42.032Z,14.20
2023-04-10T18:24:11.222Z,15.20
2023-04-10T18:26:47.296Z,14.30
2023-04-10T18:29:32.651Z,16.10
2023-04-10T18:32:03.116Z,15.30
2023-04-10T18:34:39.574Z,15.40
2023-04-10T18:37:13.889Z,15.60
2023-04-10T18:39:50.633Z,17.30
2023-04-10T18:42:27.928Z,17.80
2023-04-10T18:44:59.990Z,17.80
2023-04-10T18:47:37.587Z,17.40
2023-04-10T18:50:21.423Z,16.90
2023-04-10T18:53:15.502Z,18.50
2023-04-10T18:55:54.029Z,15.50
2023-04-10T18:58:49.830Z,16.20
2023-04-10T19:01:42.879Z,16.60
2023-04-10T19:04:15.805Z,16.70
2023-04-10T19:06:54.234Z,16.90
2023-04-10T19:09:24.491Z,17.90
2023-04-10T19:11:58.285Z,16.50
2023-04-10T19:14:37.570Z,17.80
2023-04-10T19:17:14.581Z,17.30
2023-04-10T19:19:51.315Z,16.50
2023-04-10T19:22:30.046Z,16.60
2023-04-10T19:25:08.338Z,15.00
2023-04-10T19:27:40.227Z,14.70
2023-04-10T19:30:18.045Z,15.00
2023-04-10T19:32:50.679Z,13.90
2023-04-10T19:35:22.765Z,15.00
2023-04-10T19:38:02.320Z,15.30
2023-04-10T19:40:33.523Z,14.60
2023-04-10T19:43:10.761Z,16.10
2023-04-10T19:45:39.300Z,19.80
2023-04-10T19:48:09.833Z,18.00
2023-04-10T19:50:48.628Z,15.50
2023-04-10T19:53:27.372Z,15.70
2023-04-10T19:56:03.064Z,14.70
2023-04-10T20:01:15.064Z,15.40
2023-04-10T20:03:54.432Z,16.30
2023-04-10T20:06:32.355Z,15.10
2023-04-10T20:09:06.105Z,14.70
2023-04-10T20:11:37.084Z,15.40
2023-04-10T20:14:09.506Z,15.60
2023-04-10T20:16:41.207Z,15.60
2023-04-10T20:21:11.177Z,14.70
2023-04-10T20:23:40.629Z,13.80
2023-04-10T20:26:20.438Z,13.80
2023-04-10T20:28:53.945Z,15.30
2023-04-10T20:31:23.140Z,14.90
2023-04-10T20:33:53.483Z,15.00
2023-04-10T20:36:23.075Z,15.60
2023-04-10T20:38:51.389Z,17.40
2023-04-10T20:41:19.453Z,16.60
2023-04-10T20:56:00.816Z,16.40
2023-04-10T20:58:29.040Z,17.80
2023-04-10T21:00:57.459Z,15.60
2023-04-10T21:03:27.319Z,14.70
2023-04-10T21:05:55.788Z,13.80
2023-04-10T21:08:25.496Z,15.30
2023-04-10T21:10:53.974Z,15.00
2023-04-10T21:13:22.458Z,15.90
2023-04-10T21:15:51.251Z,15.40
2023-04-10T21:18:20.446Z,16.00
2023-04-10T21:20:50.411Z,16.80
2023-04-10T21:23:18.586Z,18.20
2023-04-10T21:25:51.908Z,14.60
2023-04-10T21:28:21.697Z,15.40
2023-04-10T21:30:50.037Z,16.70
2023-04-10T21:33:19.332Z,16.20
2023-04-10T21:35:48.955Z,16.00
2023-04-10T21:38:17.409Z,17.60
2023-04-10T21:40:51.860Z,18.40
2023-04-10T21:43:21.080Z,17.20
2023-04-10T21:45:49.368Z,17.90
2023-04-10T21:48:19.784Z,16.70
2023-04-10T21:50:49.216Z,16.10
2023-04-10T21:53:17.616Z,15.40
2023-04-10T21:55:46.116Z,14.50
2023-04-10T21:58:14.283Z,14.30
2023-04-10T22:00:47.231Z,15.40
2023-04-10T22:03:16.925Z,14.70
2023-04-10T22:05:45.931Z,14.00
2023-04-10T22:08:15.062Z,13.70
2023-04-10T22:10:45.598Z,14.20
2023-04-10T22:13:30.441Z,13.50
2023-04-10T22:16:02.040Z,13.00
2023-04-10T22:18:31.534Z,12.20
2023-04-10T22:21:07.580Z,13.60
2023-04-10T22:23:37.040Z,13.50
2023-04-10T22:26:05.769Z,14.30
2023-04-10T22:28:33.953Z,13.50
2023-04-10T22:31:02.285Z,14.00
2023-04-10T22:33:33.773Z,12.70
2023-04-10T22:36:01.993Z,14.10
2023-04-10T22:38:30.431Z,13.40
2023-04-10T22:40:59.018Z,13.50
2023-04-10T22:43:27.226Z,12.80
2023-04-10T22:45:55.644Z,11.80
2023-04-10T22:48:24.801Z,13.10
2023-04-10T22:50:53.616Z,12.60
2023-04-10T22:53:24.172Z,12.70
2023-04-10T22:55:52.456Z,13.00
2023-04-10T22:58:22.733Z,13.50
2023-04-10T23:00:51.949Z,12.60
2023-04-10T23:03:20.201Z,13.90
2023-04-10T23:05:50.674Z,13.00
2023-04-10T23:08:18.957Z,14.00
2023-04-10T23:10:47.142Z,14.10
2023-04-10T23:13:18.796Z,13.20
2023-04-10T23:15:52.961Z,13.70
2023-04-10T23:18:21.392Z,11.80
2023-04-10T23:20:51.151Z,11.00
2023-04-10T23:23:20.123Z,11.70
2023-04-10T23:25:48.474Z,12.50
2023-04-10T23:28:22.643Z,13.40
2023-04-10T23:30:51.719Z,12.70
2023-04-10T23:33:19.911Z,13.00
2023-04-10T23:35:48.428Z,13.30
2023-04-10T23:38:16.689Z,13.40
2023-04-10T23:40:44.903Z,12.80
2023-04-10T23:43:13.639Z,12.90
2023-04-10T23:45:41.859Z,13.20
2023-04-10T23:48:15.166Z,12.50
2023-04-10T23:50:44.760Z,14.00
2023-04-10T23:53:14.573Z,12.30
2023-04-10T23:55:44.487Z,11.60
2023-04-10T23:58:13.071Z,12.80
